Time;durP1;ratioP1;P1;durP2;ratioP2;P2;SDS_P1;SDS_P2;PMS_P1;PMS_P2;Temp;Humidity;BMP_temperature;BMP_pressure;BME280_temperature;BME280_humidity;BME280_pressure;Samples;Min_cycle;Max_cycle;Signal;HPM_P1;HPM_P2
2021/12/24 00:00:06;;;;;;;6.83;6.13;;;7.90;83.10;;;10.68;62.59;99947.72;4862074;29;20212;-63
2021/12/24 00:02:33;;;;;;;9.17;6.83;;;7.90;83.20;;;10.69;62.89;99949.34;4861844;29;20204;-64
2021/12/24 00:05:01;;;;;;;8.23;6.33;;;7.90;83.10;;;10.69;63.43;99935.38;4862091;29;20582;-65
2021/12/24 00:07:29;;;;;;;7.23;6.50;;;7.90;83.30;;;10.69;62.75;99941.47;4862157;29;20192;-65
2021/12/24 00:09:56;;;;;;;6.87;6.17;;;7.90;83.20;;;10.67;63.35;99938.19;4862013;29;20212;-64
2021/12/24 00:12:28;;;;;;;8.07;6.40;;;7.90;83.30;;;10.68;63.33;99947.72;4861769;29;20279;-66
2021/12/24 00:15:01;;;;;;;7.50;6.37;;;7.90;83.40;;;10.71;63.23;99943.88;4861967;29;20283;-64
2021/12/24 00:17:32;;;;;;;8.57;6.33;;;7.90;83.50;;;10.70;63.60;99937.81;4860680;29;20299;-64
2021/12/24 00:36:21;;;;;;;8.10;6.87;;;8.10;83.80;;;10.85;63.40;99937.69;4861629;29;20205;-63
2021/12/24 00:38:49;;;;;;;7.40;6.47;;;8.10;83.80;;;10.88;63.28;99934.66;4861498;29;20209;-64
2021/12/24 00:41:16;;;;;;;7.20;6.50;;;8.10;84.50;;;10.92;63.15;99922.72;4861678;29;20612;-62
2021/12/24 00:43:45;;;;;;;10.37;8.03;;;8.10;83.90;;;10.96;63.19;99933.69;4860814;29;20311;-64
2021/12/24 00:46:13;;;;;;;7.60;6.20;;;8.10;84.00;;;10.98;63.19;99931.66;4859884;29;20189;-64
2021/12/24 00:48:40;;;;;;;7.83;7.13;;;8.20;84.00;;;11.02;63.75;99930.25;4861325;29;20678;-65
2021/12/24 00:51:18;;;;;;;9.00;7.30;;;8.20;84.00;;;11.06;63.20;99920.94;4860931;29;20208;-64
2021/12/24 00:56:16;;;;;;;8.70;7.80;;;8.30;84.10;;;11.16;63.02;99935.38;4861139;29;20275;-64
2021/12/24 00:58:46;;;;;;;8.00;7.20;;;8.30;84.10;;;11.16;63.17;99924.00;4861088;29;20275;-64
2021/12/24 01:01:15;;;;;;;8.00;7.20;;;8.30;84.10;;;11.17;62.93;99921.16;4860828;29;20197;-63
2021/12/24 01:03:42;;;;;;;7.63;6.83;;;8.30;83.90;;;11.19;63.38;99921.00;4860632;29;20720;-64
2021/12/24 01:06:10;;;;;;;7.23;6.53;;;8.30;83.90;;;11.23;63.27;99909.03;4861163;29;20252;-65
2021/12/24 01:08:37;;;;;;;7.83;7.00;;;8.40;84.10;;;11.26;63.08;99908.66;4861190;29;20278;-64
2021/12/24 01:11:07;;;;;;;7.43;6.67;;;8.40;84.00;;;11.29;63.06;99909.03;4861046;29;20701;-64
2021/12/24 01:13:36;;;;;;;9.50;7.13;;;8.40;84.00;;;11.33;62.86;99914.75;4860562;29;20288;-65
2021/12/24 01:16:20;;;;;;;7.90;6.33;;;8.40;84.10;;;11.36;63.07;99903.81;4860725;29;20283;-65
2021/12/24 01:18:59;;;;;;;8.07;6.97;;;8.50;84.00;;;11.38;63.02;99910.50;4842225;29;20321;-64
2021/12/24 01:21:46;;;;;;;8.17;6.70;;;8.50;83.90;;;11.42;62.84;99913.53;4842407;29;20216;-64
2021/12/24 01:24:20;;;;;;;8.80;7.20;;;8.50;83.80;;;11.43;63.08;99915.97;4854567;29;20251;-63
2021/12/24 01:43:06;;;;;;;6.80;6.10;;;8.60;83.70;;;11.50;62.82;99887.00;4860242;29;20578;-64
2021/12/24 01:45:36;;;;;;;7.63;6.40;;;8.60;83.80;;;11.55;62.42;99889.84;4860397;29;20220;-64
2021/12/24 01:48:09;;;;;;;6.63;6.00;;;8.60;84.50;;;11.61;62.24;99890.84;4860311;29;20204;-63
2021/12/24 01:50:42;;;;;;;7.27;6.33;;;8.70;83.80;;;11.64;62.35;99891.28;4860771;29;20204;-64
2021/12/24 01:53:10;;;;;;;7.13;6.43;;;8.70;83.80;;;11.65;62.29;99887.59;4858398;29;20693;-64
2021/12/24 01:55:40;;;;;;;7.50;6.30;;;8.70;83.70;;;11.65;62.40;99892.09;4860579;29;20188;-64
2021/12/24 01:58:07;;;;;;;6.33;5.53;;;8.70;83.60;;;11.64;62.27;99891.28;4859784;29;20691;-64
2021/12/24 02:00:38;;;;;;;7.57;6.77;;;8.70;83.50;;;11.66;62.30;99894.50;4860465;29;20217;-64
2021/12/24 02:03:10;;;;;;;7.03;6.33;;;8.70;83.50;;;11.67;62.58;99887.44;4859953;29;20588;-64
2021/12/24 02:05:39;;;;;;;7.00;6.30;;;8.70;83.50;;;11.69;62.19;99883.59;4860122;29;20670;-65
2021/12/24 02:08:09;;;;;;;6.37;5.77;;;8.70;83.50;;;11.68;62.12;99892.50;4860330;29;20202;-66
2021/12/24 02:10:37;;;;;;;6.40;5.80;;;8.70;83.50;;;11.67;62.54;99882.94;4860124;29;20235;-64
2021/12/24 02:13:05;;;;;;;7.00;5.90;;;8.80;83.50;;;11.67;62.31;99885.56;4859685;29;20225;-64
2021/12/24 02:15:47;;;;;;;7.13;6.43;;;8.70;83.50;;;11.67;62.32;99887.44;4859531;29;20209;-64
2021/12/24 02:29:22;;;;;;;6.00;5.40;;;8.80;83.60;;;11.61;62.82;99870.59;4860011;29;20203;-65
2021/12/24 02:31:50;;;;;;;5.77;5.17;;;8.80;83.60;;;11.62;62.95;99872.22;4859839;29;20228;-64
2021/12/24 02:34:17;;;;;;;5.63;5.13;;;8.80;83.70;;;11.67;62.90;99875.03;4859535;29;20220;-65
2021/12/24 02:36:46;;;;;;;5.53;5.03;;;8.70;83.60;;;11.70;62.35;99861.50;4859436;29;20201;-64
2021/12/24 02:39:14;;;;;;;5.97;5.30;;;8.80;83.80;;;11.72;62.69;99863.94;4859474;29;20241;-64
2021/12/24 02:41:41;;;;;;;6.27;5.67;;;8.80;83.70;;;11.75;62.60;99855.59;4859820;29;20552;-65
2021/12/24 02:44:09;;;;;;;5.43;4.93;;;8.80;83.70;;;11.75;62.64;99856.41;4858124;29;20269;-63
2021/12/24 02:47:05;;;;;;;5.80;5.20;;;8.80;83.70;;;11.73;62.46;99862.91;4860199;29;20215;-65
2021/12/24 02:55:08;;;;;;;6.00;5.50;;;8.80;83.60;;;11.70;62.61;99848.31;4860296;29;20213;-64
2021/12/24 02:57:37;;;;;;;5.40;4.90;;;8.80;83.70;;;11.73;62.93;99852.38;4860160;29;20667;-64
2021/12/24 03:00:14;;;;;;;6.53;5.70;;;8.80;83.70;;;11.77;62.80;99828.03;4859950;29;20195;-65
2021/12/24 03:02:44;;;;;;;5.43;4.93;;;8.80;83.80;;;11.77;62.31;99822.75;4859730;29;20247;-65
2021/12/24 03:05:13;;;;;;;5.57;5.07;;;8.90;83.90;;;11.79;62.47;99823.34;4859719;29;20249;-66
2021/12/24 03:07:43;;;;;;;5.70;5.20;;;8.90;84.00;;;11.79;62.67;99820.72;4859505;29;20705;-65
2021/12/24 03:10:17;;;;;;;5.77;5.23;;;8.90;83.90;;;11.78;62.44;99824.38;4862845;29;20596;-62
2021/12/24 03:12:51;;;;;;;5.10;4.60;;;8.90;84.10;;;11.77;62.79;99820.13;4861951;29;20654;-62
2021/12/24 03:15:22;;;;;;;5.37;4.87;;;8.90;84.20;;;11.78;62.90;99813.84;4863077;29;20211;-63
2021/12/24 03:17:56;;;;;;;5.50;5.00;;;8.90;84.20;;;11.79;62.90;99815.44;4863465;29;20305;-64
2021/12/24 03:20:24;;;;;;;4.97;4.57;;;8.90;84.30;;;11.80;62.88;99811.81;4862874;29;20300;-65
2021/12/24 03:25:30;;;;;;;6.37;4.87;;;8.90;84.40;;;11.83;62.83;99816.69;4863230;29;20626;-65
2021/12/24 03:27:57;;;;;;;5.37;4.87;;;8.90;84.40;;;11.85;63.26;99809.38;4862609;29;20279;-65
2021/12/24 03:30:25;;;;;;;5.20;4.73;;;9.00;84.70;;;11.88;62.85;99806.31;4862711;29;20265;-65
2021/12/24 03:32:53;;;;;;;4.77;4.37;;;9.00;84.80;;;11.90;63.36;99796.38;4862226;29;20647;-65
2021/12/24 03:35:20;;;;;;;5.37;4.97;;;9.00;84.80;;;11.91;63.12;99797.97;4863037;29;20203;-65
2021/12/24 03:37:48;;;;;;;5.27;4.77;;;9.00;84.80;;;11.92;63.33;99794.34;4862509;29;20196;-65
2021/12/24 03:40:17;;;;;;;5.43;4.93;;;9.00;84.80;;;11.91;63.43;99791.91;4862740;29;20211;-65
2021/12/24 03:42:44;;;;;;;4.67;4.27;;;9.00;84.80;;;11.91;63.57;99789.28;4862458;29;20221;-65
2021/12/24 03:45:26;;;;;;;4.53;4.13;;;9.00;84.90;;;11.91;63.39;99791.91;4862522;29;20271;-65
2021/12/24 03:47:59;;;;;;;4.50;4.10;;;9.10;84.90;;;11.93;63.45;99788.03;4844286;29;20208;-65
2021/12/24 03:50:42;;;;;;;4.60;4.20;;;9.10;84.90;;;11.96;63.23;99798.19;4858497;29;20253;-64
2021/12/24 03:56:04;;;;;;;4.23;3.83;;;9.10;84.90;;;12.03;63.12;99792.88;4861112;29;20204;-64
2021/12/24 03:58:32;;;;;;;4.23;3.93;;;9.20;85.00;;;12.08;63.23;99796.53;4862485;29;20204;-65
2021/12/24 04:01:00;;;;;;;4.37;4.00;;;9.20;85.00;;;12.11;63.56;99796.13;4862058;29;20207;-65
2021/12/24 04:03:28;;;;;;;4.47;4.07;;;9.20;85.00;;;12.12;63.20;99797.72;4861103;29;20228;-65
2021/12/24 04:05:55;;;;;;;4.17;3.77;;;9.20;85.00;;;12.16;63.13;99788.41;4862259;29;20212;-64
2021/12/24 04:08:22;;;;;;;4.13;3.80;;;9.30;85.10;;;12.19;63.26;99787.16;4862156;29;20201;-65
2021/12/24 04:10:51;;;;;;;4.20;3.80;;;9.30;85.10;;;12.22;62.94;99794.66;4861721;29;20267;-65
2021/12/24 04:13:20;;;;;;;3.90;3.60;;;9.30;85.00;;;12.24;63.24;99785.50;4861782;29;20217;-65
2021/12/24 04:15:48;;;;;;;4.23;3.93;;;9.30;85.00;;;12.30;62.73;99790.97;4861780;29;20239;-65
2021/12/24 04:18:34;;;;;;;3.70;3.40;;;9.30;84.90;;;12.33;62.50;99782.66;4861655;29;20540;-65
2021/12/24 04:26:50;;;;;;;3.40;3.17;;;9.40;85.00;;;12.35;62.84;99783.25;4870932;29;20250;-64
2021/12/24 04:29:19;;;;;;;3.70;3.40;;;9.40;85.00;;;12.36;63.12;99785.66;4861679;29;20302;-65
2021/12/24 04:31:55;;;;;;;3.20;2.90;;;9.40;85.10;;;12.38;62.84;99793.38;4860965;29;20655;-65
2021/12/24 04:34:27;;;;;;;3.17;2.90;;;9.40;85.10;;;12.44;62.91;99797.81;4860408;29;20315;-64
2021/12/24 05:02:07;;;;;;;3.90;3.60;;;9.50;84.90;;;12.60;62.62;99778.88;4861166;29;20291;-64
2021/12/24 05:04:38;;;;;;;3.13;2.90;;;9.50;84.90;;;12.62;62.76;99776.84;4861010;29;20219;-64
2021/12/24 05:07:22;;;;;;;3.00;2.80;;;9.60;85.00;;;12.65;62.56;99784.31;4861052;29;20307;-64
2021/12/24 05:09:49;;;;;;;3.30;3.00;;;9.50;84.90;;;12.65;62.56;99781.66;4861032;29;20276;-65
2021/12/24 05:12:17;;;;;;;3.57;3.27;;;9.60;85.00;;;12.65;62.63;99794.88;4860920;29;20211;-63
2021/12/24 05:14:44;;;;;;;3.50;3.20;;;9.60;85.10;;;12.64;62.79;99791.44;4860414;29;20244;-65
2021/12/24 05:17:33;;;;;;;3.43;3.13;;;9.60;85.00;;;12.64;62.79;99791.44;4860664;29;20301;-65
2021/12/24 05:22:46;;;;;;;2.90;2.70;;;9.60;85.00;;;12.66;62.63;99785.94;4860577;29;20244;-65
2021/12/24 05:25:14;;;;;;;3.00;2.80;;;9.60;85.00;;;12.67;62.65;99787.56;4859705;29;20687;-65
2021/12/24 05:27:41;;;;;;;3.27;3.03;;;9.60;85.00;;;12.68;62.87;99789.19;4861003;29;20204;-65
2021/12/24 05:30:10;;;;;;;2.43;2.23;;;9.60;85.10;;;12.71;62.66;99788.75;4861149;29;20232;-64
2021/12/24 05:32:39;;;;;;;2.93;2.73;;;9.70;85.20;;;12.72;62.57;99790.38;4859645;29;20614;-64
2021/12/24 05:35:07;;;;;;;3.03;2.83;;;9.70;85.10;;;12.74;62.69;99786.50;4860592;29;20207;-64
2021/12/24 05:37:35;;;;;;;3.40;3.07;;;9.70;85.10;;;12.75;62.66;99785.47;4860903;29;20193;-63
2021/12/24 05:40:03;;;;;;;3.23;2.93;;;9.70;85.10;;;12.76;62.68;99773.09;4860659;29;20212;-64
2021/12/24 05:42:32;;;;;;;2.17;2.07;;;9.70;85.20;;;12.77;62.63;99778.16;4859557;29;20201;-64
2021/12/24 05:45:04;;;;;;;2.90;2.70;;;9.70;85.20;;;12.80;62.48;99783.03;4860755;29;20726;-65
2021/12/24 05:47:33;;;;;;;2.60;2.40;;;9.70;85.10;;;12.83;62.67;99782.59;4861267;29;20624;-65
2021/12/24 05:50:03;;;;;;;2.80;2.60;;;9.70;85.10;;;12.87;62.48;99782.97;4860945;29;20197;-64
2021/12/24 05:52:30;;;;;;;2.63;2.43;;;9.70;85.10;;;12.88;62.44;99782.75;4861061;29;20204;-65
2021/12/24 05:54:59;;;;;;;2.90;2.70;;;9.80;85.20;;;12.90;62.36;99772.00;4860740;29;20607;-65
2021/12/24 05:57:28;;;;;;;2.70;2.50;;;9.80;85.20;;;12.93;62.33;99773.41;4860772;29;20192;-65
2021/12/24 05:59:56;;;;;;;2.87;2.67;;;9.80;85.20;;;12.95;62.35;99774.81;4859756;29;20208;-65
2021/12/24 06:02:23;;;;;;;3.20;3.00;;;9.80;86.00;;;12.97;62.18;99772.75;4860111;29;20601;-63
2021/12/24 06:04:51;;;;;;;2.97;2.70;;;9.80;85.20;;;12.99;62.22;99770.69;4860505;29;20201;-65
2021/12/24 06:07:20;;;;;;;2.43;2.23;;;9.80;85.20;;;12.99;62.25;99770.69;4860354;29;20228;-65
2021/12/24 06:09:51;;;;;;;2.50;2.30;;;9.80;85.20;;;13.00;62.31;99774.97;4860093;29;20216;-63
2021/12/24 06:12:18;;;;;;;2.77;2.57;;;9.80;85.20;;;13.01;62.24;99773.94;4859995;29;20203;-64
2021/12/24 06:14:53;;;;;;;2.40;2.20;;;9.80;85.20;;;13.01;62.17;99773.94;4860605;29;20419;-63
2021/12/24 06:17:23;;;;;;;2.33;2.13;;;9.90;85.60;;;13.02;62.21;99767.66;4860221;29;20643;-65
2021/12/24 06:19:50;;;;;;;1.90;1.80;;;9.90;85.20;;;13.06;62.33;99776.78;4860635;29;20203;-65
2021/12/24 06:22:19;;;;;;;2.07;1.90;;;9.90;85.20;;;13.10;62.17;99783.25;4860625;29;20274;-63
2021/12/24 06:24:47;;;;;;;1.50;1.40;;;9.90;85.10;;;13.11;62.17;99776.94;4859014;29;20228;-64
2021/12/24 06:27:14;;;;;;;2.20;2.10;;;9.90;85.10;;;13.15;62.10;99778.13;4860617;29;20256;-64
2021/12/24 06:29:41;;;;;;;2.50;2.30;;;9.90;85.10;;;13.19;62.10;99786.44;4860773;29;20189;-65
2021/12/24 06:32:09;;;;;;;2.90;2.70;;;10.00;83.80;;;13.21;61.78;99779.94;4860691;29;20220;-64
2021/12/24 06:34:36;;;;;;;2.77;2.57;;;10.00;83.70;;;13.22;61.73;99773.59;4860510;29;20220;-64
2021/12/24 06:37:04;;;;;;;2.93;2.70;;;10.00;83.40;;;13.22;61.71;99778.06;4860972;29;20223;-63
2021/12/24 06:39:33;;;;;;;3.73;3.43;;;10.00;83.40;;;13.21;61.57;99790.50;4860478;29;20200;-64
2021/12/24 06:42:01;;;;;;;3.17;2.80;;;10.00;83.30;;;13.19;61.67;99784.59;4859972;29;20674;-65
2021/12/24 06:44:28;;;;;;;1.87;1.77;;;10.00;83.20;;;13.18;61.70;99784.81;4862412;29;20221;-65
2021/12/24 06:46:56;;;;;;;1.97;1.77;;;10.00;83.20;;;13.16;61.98;99782.41;4862663;29;20228;-65
2021/12/24 06:49:23;;;;;;;2.60;2.40;;;10.00;83.30;;;13.16;61.60;99782.41;4863621;29;20196;-65
2021/12/24 06:51:51;;;;;;;2.50;2.30;;;10.00;83.30;;;13.15;61.64;99787.88;4863371;29;20280;-65
2021/12/24 06:54:18;;;;;;;2.23;1.67;;;10.00;83.30;;;13.14;61.44;99789.75;4863343;29;20216;-65
2021/12/24 06:56:48;;;;;;;2.10;2.00;;;10.00;83.40;;;13.15;61.89;99790.53;4863432;29;20653;-65
2021/12/24 06:59:15;;;;;;;2.07;1.90;;;10.00;83.30;;;13.16;61.84;99792.97;4863510;29;20625;-65
2021/12/24 07:01:43;;;;;;;1.77;1.67;;;10.00;83.30;;;13.16;61.71;99795.63;4863106;29;20232;-65
2021/12/24 07:04:11;;;;;;;2.00;1.80;;;10.00;83.30;;;13.18;61.66;99796.22;4862253;29;20238;-64
2021/12/24 07:06:45;;;;;;;1.70;1.60;;;10.00;83.30;;;13.19;61.66;99795.16;4862030;29;20296;-64
2021/12/24 07:09:14;;;;;;;1.70;1.60;;;10.00;83.30;;;13.22;61.93;99796.56;4862669;29;20293;-64
2021/12/24 07:11:42;;;;;;;1.60;1.50;;;10.00;83.30;;;13.23;61.61;99793.72;4864603;29;20207;-64
2021/12/24 07:14:11;;;;;;;1.60;1.50;;;10.00;83.20;;;13.26;61.57;99798.59;4864030;29;20217;-65
2021/12/24 07:16:39;;;;;;;1.87;1.77;;;10.00;83.00;;;13.26;61.54;99788.03;4863360;29;20686;-65
2021/12/24 07:19:07;;;;;;;2.00;1.80;;;10.10;82.90;;;13.25;61.48;99791.69;4864262;29;20202;-64
2021/12/24 07:21:35;;;;;;;2.20;1.93;;;10.10;82.90;;;13.23;61.49;99793.72;4863842;29;20204;-63
2021/12/24 07:24:04;;;;;;;2.70;2.10;;;10.00;82.80;;;13.25;61.57;99791.69;4863705;29;20236;-65
2021/12/24 07:26:32;;;;;;;3.27;2.97;;;10.10;83.00;;;13.24;61.38;99795.34;4864309;29;20228;-65
2021/12/24 07:29:00;;;;;;;4.47;2.60;;;10.00;82.80;;;13.24;61.46;99790.03;4863139;29;20192;-65
2021/12/24 07:31:29;;;;;;;2.47;2.27;;;10.10;82.90;;;13.22;61.40;99786.81;4862424;29;20234;-66
2021/12/24 07:33:56;;;;;;;4.73;4.23;;;10.10;82.80;;;13.20;61.56;99780.94;4862076;29;20245;-65
2021/12/24 07:36:23;;;;;;;3.40;2.77;;;10.10;82.80;;;13.20;61.60;99788.06;4862585;29;20201;-64
2021/12/24 07:38:51;;;;;;;4.30;3.30;;;10.00;82.70;;;13.20;61.43;99794.16;4862899;29;20228;-64
2021/12/24 07:41:19;;;;;;;2.97;2.67;;;10.00;82.50;;;13.19;61.39;99800.44;4862251;29;20196;-65
2021/12/24 07:43:46;;;;;;;2.43;2.10;;;10.00;82.50;;;13.18;61.39;99801.50;4862407;29;20281;-65
2021/12/24 07:46:14;;;;;;;2.70;2.50;;;10.00;82.50;;;13.16;61.27;99803.53;4862659;29;20587;-64
2021/12/24 07:48:49;;;;;;;2.70;2.50;;;10.00;82.60;;;13.13;61.45;99805.78;4861961;29;20227;-63
2021/12/24 07:54:04;;;;;;;4.60;4.10;;;10.00;82.50;;;13.10;61.27;99817.59;4861880;29;20220;-64
2021/12/24 07:56:32;;;;;;;3.83;3.53;;;9.90;83.50;;;13.06;60.81;99824.34;4862220;29;20248;-64
2021/12/24 07:59:01;;;;;;;2.50;2.30;;;9.90;83.40;;;13.04;61.25;99826.34;4853522;29;20563;-64
2021/12/24 08:01:29;;;;;;;1.40;1.30;;;9.90;83.40;;;13.02;61.35;99823.13;4861908;29;20209;-63
2021/12/24 08:03:58;;;;;;;1.43;1.27;;;9.90;83.10;;;13.00;61.19;99825.16;4845429;29;20240;-63
2021/12/24 08:06:26;;;;;;;1.73;1.30;;;9.90;82.90;;;12.98;61.10;99829.81;4860958;29;20280;-63
2021/12/24 08:08:53;;;;;;;1.43;1.33;;;9.90;82.80;;;12.96;61.04;99837.16;4861968;29;20561;-63
2021/12/24 08:11:21;;;;;;;1.40;1.30;;;9.90;82.80;;;12.92;60.96;99843.91;4862277;29;20200;-64
2021/12/24 08:13:48;;;;;;;1.27;1.17;;;9.80;82.40;;;12.88;60.96;99840.06;4861559;29;20228;-63
2021/12/24 08:16:16;;;;;;;1.53;1.43;;;9.80;82.10;;;12.83;60.84;99845.16;4862218;29;20205;-64
2021/12/24 08:18:44;;;;;;;1.20;1.10;;;9.80;81.90;;;12.77;60.96;99841.53;4861836;29;20264;-64
2021/12/24 08:21:13;;;;;;;1.23;1.13;;;9.70;81.60;;;12.72;60.91;99848.44;4861728;29;20192;-64
2021/12/24 08:23:41;;;;;;;1.83;1.40;;;9.70;81.50;;;12.68;60.70;99853.34;4861221;29;20217;-64
2021/12/24 08:26:08;;;;;;;1.47;1.37;;;9.70;81.30;;;12.66;60.61;99849.31;4862306;29;20217;-64
2021/12/24 08:28:36;;;;;;;1.30;1.20;;;9.60;81.20;;;12.63;60.60;99855.81;4861996;29;20202;-66
2021/12/24 08:31:04;;;;;;;1.57;1.47;;;9.60;81.30;;;12.62;60.42;99848.09;4862285;29;20203;-65
2021/12/24 08:33:34;;;;;;;1.60;1.50;;;9.50;81.10;;;12.61;60.52;99851.75;4845291;29;20229;-64
2021/12/24 08:36:02;;;;;;;1.70;1.60;;;9.50;81.10;;;12.61;60.34;99841.19;4860640;29;20216;-65
2021/12/24 08:38:32;;;;;;;1.40;1.30;;;9.50;81.20;;;12.62;60.08;99827.00;4862202;29;20197;-64
2021/12/24 08:40:59;;;;;;;1.37;1.27;;;9.50;81.30;;;12.63;60.00;99844.44;4861830;29;20298;-64
2021/12/24 08:43:27;;;;;;;1.60;1.50;;;9.40;81.20;;;12.61;59.78;99841.19;4861637;29;20243;-64
2021/12/24 08:45:55;;;;;;;1.67;1.27;;;9.40;81.30;;;12.60;60.05;99836.97;4860555;29;20238;-64
2021/12/24 08:48:22;;;;;;;1.73;1.23;;;9.40;81.40;;;12.58;59.73;99836.34;4861014;29;20225;-64
2021/12/24 08:50:50;;;;;;;2.30;1.80;;;9.40;81.10;;;12.58;59.76;99844.25;4861401;29;20239;-64
2021/12/24 08:53:17;;;;;;;1.90;1.80;;;9.40;80.90;;;12.55;59.96;99842.06;4859942;29;20224;-64
2021/12/24 08:55:46;;;;;;;2.03;1.93;;;9.40;81.20;;;12.52;59.84;99847.75;4861267;29;20203;-64
2021/12/24 08:58:13;;;;;;;2.20;2.00;;;9.30;80.70;;;12.49;59.71;99869.25;4861362;29;20193;-64
2021/12/24 09:00:42;;;;;;;1.90;1.80;;;9.30;81.50;;;12.43;59.57;99884.09;4861136;29;20283;-64
2021/12/24 09:03:09;;;;;;;1.60;1.50;;;9.30;80.30;;;12.38;59.68;99883.09;4860963;29;20231;-65
2021/12/24 09:05:37;;;;;;;3.37;2.10;;;9.20;80.50;;;12.34;59.63;99881.91;4861475;29;20196;-65
2021/12/24 09:08:05;;;;;;;2.60;1.73;;;9.20;80.50;;;12.30;59.79;99884.13;4860946;29;20213;-65
2021/12/24 09:10:33;;;;;;;1.83;1.73;;;9.20;80.40;;;12.26;59.48;99890.84;4861287;29;20719;-65
2021/12/24 09:13:02;;;;;;;1.90;1.80;;;9.20;80.30;;;12.21;59.45;99909.13;4860930;29;20208;-65
2021/12/24 09:15:30;;;;;;;2.03;1.67;;;9.10;79.90;;;12.16;59.60;99901.81;4861603;29;20210;-63
2021/12/24 09:18:00;;;;;;;2.20;2.00;;;9.10;80.10;;;12.13;59.53;99894.31;4861203;29;20561;-65
2021/12/24 09:20:37;;;;;;;2.17;2.00;;;9.10;80.20;;;12.11;59.82;99904.25;4859393;29;20212;-65
2021/12/24 09:23:07;;;;;;;1.80;1.70;;;9.10;80.20;;;12.11;59.82;99903.44;4859435;29;20555;-65
2021/12/24 09:25:35;;;;;;;2.10;1.87;;;9.10;80.30;;;12.10;59.33;99902.63;4861172;29;20202;-65
2021/12/24 09:28:04;;;;;;;2.67;2.47;;;9.00;80.10;;;12.08;59.51;99909.13;4860783;29;20225;-65
2021/12/24 09:30:33;;;;;;;3.13;2.83;;;9.00;80.00;;;12.07;59.40;99924.16;4860668;29;20559;-65
2021/12/24 09:33:03;;;;;;;4.77;4.23;;;9.00;80.10;;;12.04;59.71;99929.84;4860860;29;20216;-65
2021/12/24 09:35:32;;;;;;;9.17;8.23;;;9.00;80.10;;;12.05;59.79;99926.16;4860718;29;20207;-65
2021/12/24 09:38:01;;;;;;;5.33;4.33;;;9.00;81.20;;;12.05;59.34;99933.28;4859866;29;20605;-65
2021/12/24 09:40:30;;;;;;;4.30;3.50;;;8.90;79.90;;;12.03;59.59;99941.38;4861063;29;20351;-66
2021/12/24 09:42:58;;;;;;;3.67;3.20;;;8.90;79.50;;;11.99;59.21;99942.81;4860985;29;20248;-65
2021/12/24 09:45:27;;;;;;;4.53;2.80;;;8.90;80.20;;;11.96;59.07;99951.13;4860897;29;20638;-64
2021/12/24 09:47:55;;;;;;;2.57;2.37;;;8.80;80.00;;;11.93;59.25;99943.63;4861199;29;20211;-66
2021/12/24 09:50:25;;;;;;;2.67;2.47;;;8.80;80.00;;;11.90;59.58;99949.31;4860991;29;20611;-64
2021/12/24 09:52:53;;;;;;;3.00;2.10;;;8.80;79.70;;;11.86;59.25;99953.34;4860269;29;20235;-63
2021/12/24 09:55:25;;;;;;;2.50;2.30;;;8.80;79.60;;;11.84;59.43;99955.38;4860936;29;20204;-64
2021/12/24 09:57:53;;;;;;;2.57;2.10;;;8.70;79.50;;;11.81;59.19;99950.53;4860590;29;20284;-65
2021/12/24 10:00:24;;;;;;;2.53;2.33;;;8.70;79.20;;;11.79;58.90;99946.47;4860695;29;20232;-64
2021/12/24 10:02:56;;;;;;;2.60;2.40;;;8.70;78.90;;;11.76;59.15;99952.97;4860283;29;20635;-64
2021/12/24 10:05:35;;;;;;;2.83;2.63;;;8.60;78.70;;;11.71;58.70;99955.38;4860830;29;20365;-64
2021/12/24 10:08:10;;;;;;;2.77;2.47;;;8.60;78.80;;;11.71;58.95;99944.84;4860161;29;20669;-65
2021/12/24 10:10:42;;;;;;;3.40;3.10;;;8.60;78.90;;;11.71;58.86;99942.19;4860332;29;20200;-65
2021/12/24 10:13:38;;;;;;;2.07;1.87;;;8.60;78.60;;;11.66;58.55;99957.78;4859739;29;20666;-65
2021/12/24 10:16:09;;;;;;;2.73;1.90;;;8.60;78.50;;;11.67;58.28;99964.66;4859027;29;20233;-65
2021/12/24 10:18:42;;;;;;;3.20;2.90;;;8.50;78.10;;;11.65;58.44;99971.16;4860991;29;20237;-64
2021/12/24 10:21:13;;;;;;;3.07;2.13;;;8.50;77.80;;;11.63;58.30;99989.78;4864118;29;20204;-64
2021/12/24 10:23:50;;;;;;;1.50;1.40;;;8.50;77.40;;;11.55;58.28;99997.91;4863705;29;20304;-65
2021/12/24 10:26:22;;;;;;;2.10;1.90;;;8.40;77.30;;;11.49;57.59;99996.88;4862918;29;20282;-64
2021/12/24 10:28:54;;;;;;;1.63;1.50;;;8.40;77.40;;;11.45;57.69;100008.00;4863542;29;20303;-64
2021/12/24 10:31:26;;;;;;;1.53;1.40;;;8.30;77.50;;;11.39;57.73;99999.06;4863564;29;20680;-65
2021/12/24 10:34:22;;;;;;;1.67;1.30;;;8.30;77.50;;;11.32;58.48;99998.22;4863508;29;20219;-64
2021/12/24 10:37:00;;;;;;;1.57;1.47;;;8.30;77.90;;;11.33;57.97;100001.69;4859407;29;20216;-64
2021/12/24 10:39:31;;;;;;;1.30;1.20;;;8.20;77.40;;;11.33;57.74;99993.78;4864009;29;20204;-65
2021/12/24 10:42:05;;;;;;;2.00;1.70;;;8.20;76.60;;;11.31;57.93;99998.44;4863290;29;20245;-64
2021/12/24 10:44:35;;;;;;;2.60;2.33;;;8.20;77.40;;;11.31;57.61;100009.78;4863355;29;20618;-65
2021/12/24 10:47:09;;;;;;;1.67;1.43;;;8.20;77.40;;;11.28;57.65;100007.53;4862464;29;20355;-65
2021/12/24 10:52:14;;;;;;;3.73;3.43;;;8.20;77.60;;;11.32;57.53;100007.94;4862242;29;20240;-64
2021/12/24 10:54:53;;;;;;;2.20;1.93;;;8.10;77.50;;;11.31;58.01;100016.88;4863322;29;20219;-64
2021/12/24 10:57:24;;;;;;;4.53;2.33;;;8.20;77.50;;;11.30;57.70;100020.50;4862895;29;20220;-65
2021/12/24 10:59:56;;;;;;;2.60;2.03;;;8.20;77.40;;;11.30;58.00;100010.78;4861823;29;20225;-64
2021/12/24 11:02:31;;;;;;;2.37;1.97;;;8.20;77.50;;;11.29;57.51;100018.91;4862615;29;20211;-65
2021/12/24 11:05:00;;;;;;;1.97;1.80;;;8.10;77.10;;;11.28;57.44;100009.34;4862822;29;20200;-65
2021/12/24 11:07:34;;;;;;;2.03;1.83;;;8.10;76.90;;;11.26;57.38;100021.91;4862913;29;20224;-63
2021/12/24 11:10:11;;;;;;;1.80;1.70;;;8.10;77.30;;;11.25;57.99;100012.38;4863476;29;20379;-64
2021/12/24 11:12:42;;;;;;;2.13;1.93;;;8.10;77.70;;;11.27;57.96;100026.16;4863202;29;20239;-65
2021/12/24 11:15:28;;;;;;;2.00;1.70;;;8.10;78.40;;;11.29;58.11;100024.16;4861764;29;20481;-64
2021/12/24 11:18:00;;;;;;;2.40;2.00;;;8.10;78.00;;;11.35;57.71;100033.91;4863783;29;20201;-65
2021/12/24 11:20:31;;;;;;;2.63;2.40;;;8.10;77.00;;;11.32;57.10;100029.84;4863314;29;20621;-64
2021/12/24 11:23:08;;;;;;;2.20;1.63;;;8.10;76.90;;;11.31;57.09;100032.69;4863107;29;20308;-63
2021/12/24 11:25:40;;;;;;;1.87;1.70;;;8.10;77.30;;;11.30;56.91;100031.03;4863325;29;20200;-64
2021/12/24 11:28:09;;;;;;;2.03;1.77;;;8.10;76.50;;;11.29;57.23;100039.97;4862897;29;20568;-64
2021/12/24 11:30:42;;;;;;;1.70;1.50;;;8.10;76.40;;;11.30;57.82;100036.31;4862432;29;20212;-64
2021/12/24 11:33:15;;;;;;;1.70;1.60;;;8.10;77.30;;;11.33;57.78;100041.19;4863023;29;20217;-64
2021/12/24 11:35:46;;;;;;;2.87;2.20;;;8.20;77.50;;;11.36;57.27;100041.59;4862799;29;20205;-64
2021/12/24 11:38:17;;;;;;;2.70;2.33;;;8.20;77.40;;;11.41;57.65;100043.66;4863118;29;20271;-65
2021/12/24 11:40:48;;;;;;;4.53;3.33;;;8.20;76.90;;;11.43;56.93;100047.69;4861924;29;20627;-65
2021/12/24 11:43:19;;;;;;;5.37;4.83;;;8.20;76.00;;;11.44;56.38;100043.25;4862288;29;20240;-64
2021/12/24 11:45:47;;;;;;;3.83;3.40;;;8.20;75.50;;;11.46;56.58;100051.78;4862832;29;20276;-64
2021/12/24 11:48:14;;;;;;;5.17;4.57;;;8.20;75.40;;;11.46;56.33;100051.78;4862673;29;20304;-64
2021/12/24 11:50:44;;;;;;;5.20;4.17;;;8.20;75.40;;;11.45;56.78;100056.25;4862448;29;20196;-64
2021/12/24 11:53:17;;;;;;;2.40;2.20;;;8.20;75.90;;;11.46;56.93;100057.03;4861918;29;20213;-64
2021/12/24 11:56:07;;;;;;;2.10;1.90;;;8.20;76.20;;;11.49;57.06;100059.28;4844416;29;20212;-65
2021/12/24 11:58:43;;;;;;;1.70;1.60;;;8.20;76.80;;;11.51;56.84;100054.63;4857797;29;20208;-64
2021/12/24 12:01:11;;;;;;;2.10;1.80;;;8.30;77.10;;;11.57;56.90;100064.41;4862677;29;20260;-63
2021/12/24 12:03:46;;;;;;;1.67;1.57;;;8.30;76.20;;;11.57;56.76;100064.41;4862697;29;20306;-63
2021/12/24 12:06:34;;;;;;;1.93;1.80;;;8.30;76.00;;;11.52;56.04;100058.91;4862902;29;20291;-64
2021/12/24 12:09:06;;;;;;;1.67;1.33;;;8.30;75.30;;;11.51;56.14;100060.72;4863567;29;20256;-65
2021/12/24 12:11:36;;;;;;;1.60;1.50;;;8.30;74.80;;;11.46;56.34;100065.75;4862768;29;20197;-65
2021/12/24 12:14:21;;;;;;;3.47;1.57;;;8.20;74.30;;;11.42;55.66;100076.91;4862511;29;20224;-65